sensor_id;sensor_type;location;lat;lon;timestamp;pressure;altitude;pressure_sealevel;temperature;humidity
34658;BME280;20865;43.312;27.152;2022-07-15T00:00:14;100380.23;;;25.89;39.03
34658;BME280;20865;43.312;27.152;2022-07-15T00:02:42;100380.11;;;25.91;38.87
34658;BME280;20865;43.312;27.152;2022-07-15T00:05:09;100378.95;;;25.84;38.77
34658;BME280;20865;43.312;27.152;2022-07-15T00:07:38;100381.20;;;25.79;38.75
34658;BME280;20865;43.312;27.152;2022-07-15T00:10:06;100380.83;;;25.68;39.10
34658;BME280;20865;43.312;27.152;2022-07-15T00:12:53;100384.25;;;25.51;39.48
34658;BME280;20865;43.312;27.152;2022-07-15T00:15:24;100376.95;;;25.36;39.58
34658;BME280;20865;43.312;27.152;2022-07-15T00:17:52;100383.70;;;25.32;39.47
34658;BME280;20865;43.312;27.152;2022-07-15T00:20:21;100375.39;;;25.28;39.61
34658;BME280;20865;43.312;27.152;2022-07-15T00:22:50;100377.66;;;25.38;39.34
34658;BME280;20865;43.312;27.152;2022-07-15T00:25:18;100370.97;;;25.11;40.13
34658;BME280;20865;43.312;27.152;2022-07-15T00:27:57;100376.67;;;25.08;40.14
34658;BME280;20865;43.312;27.152;2022-07-15T00:30:33;100381.56;;;24.68;41.21
34658;BME280;20865;43.312;27.152;2022-07-15T00:33:01;100377.41;;;24.80;40.88
34658;BME280;20865;43.312;27.152;2022-07-15T00:35:30;100368.26;;;24.90;40.31
34658;BME280;20865;43.312;27.152;2022-07-15T00:37:58;100372.54;;;24.83;40.51
34658;BME280;20865;43.312;27.152;2022-07-15T00:40:26;100368.56;;;24.82;40.30
34658;BME280;20865;43.312;27.152;2022-07-15T00:42:54;100372.33;;;24.60;40.99
34658;BME280;20865;43.312;27.152;2022-07-15T00:45:24;100367.02;;;24.74;40.89
34658;BME280;20865;43.312;27.152;2022-07-15T00:47:54;100365.86;;;24.61;41.25
34658;BME280;20865;43.312;27.152;2022-07-15T00:50:28;100367.64;;;24.71;40.99
34658;BME280;20865;43.312;27.152;2022-07-15T00:53:06;100361.80;;;24.76;40.83
34658;BME280;20865;43.312;27.152;2022-07-15T00:55:40;100363.56;;;24.51;41.09
34658;BME280;20865;43.312;27.152;2022-07-15T00:58:05;100357.77;;;24.95;39.75
34658;BME280;20865;43.312;27.152;2022-07-15T01:00:34;100359.64;;;24.95;39.34
34658;BME280;20865;43.312;27.152;2022-07-15T01:03:02;100354.22;;;24.74;39.59
34658;BME280;20865;43.312;27.152;2022-07-15T01:05:29;100348.16;;;24.70;39.89
34658;BME280;20865;43.312;27.152;2022-07-15T01:07:57;100355.47;;;24.76;40.22
34658;BME280;20865;43.312;27.152;2022-07-15T01:10:25;100351.38;;;24.76;40.30
34658;BME280;20865;43.312;27.152;2022-07-15T01:12:53;100350.62;;;24.89;39.85
34658;BME280;20865;43.312;27.152;2022-07-15T01:15:21;100354.45;;;24.92;39.48
34658;BME280;20865;43.312;27.152;2022-07-15T01:17:48;100349.17;;;24.85;39.48
34658;BME280;20865;43.312;27.152;2022-07-15T01:20:16;100353.23;;;24.90;39.21
34658;BME280;20865;43.312;27.152;2022-07-15T01:22:44;100348.86;;;24.93;38.99
34658;BME280;20865;43.312;27.152;2022-07-15T01:25:14;100352.64;;;24.87;39.09
34658;BME280;20865;43.312;27.152;2022-07-15T01:27:41;100346.79;;;24.86;39.25
34658;BME280;20865;43.312;27.152;2022-07-15T01:30:10;100346.77;;;24.76;39.62
34658;BME280;20865;43.312;27.152;2022-07-15T01:32:38;100343.03;;;24.77;39.82
34658;BME280;20865;43.312;27.152;2022-07-15T01:35:06;100345.08;;;24.69;40.12
34658;BME280;20865;43.312;27.152;2022-07-15T01:37:34;100342.34;;;24.69;40.12
34658;BME280;20865;43.312;27.152;2022-07-15T01:40:02;100346.53;;;24.74;40.14
34658;BME280;20865;43.312;27.152;2022-07-15T01:42:29;100345.08;;;24.69;40.16
34658;BME280;20865;43.312;27.152;2022-07-15T01:44:57;100343.42;;;24.57;39.75
34658;BME280;20865;43.312;27.152;2022-07-15T01:47:25;100342.56;;;24.57;39.47
34658;BME280;20865;43.312;27.152;2022-07-15T01:49:53;100333.83;;;24.63;39.36
34658;BME280;20865;43.312;27.152;2022-07-15T01:52:20;100335.37;;;24.56;39.62
34658;BME280;20865;43.312;27.152;2022-07-15T01:54:49;100335.49;;;24.54;39.68
34658;BME280;20865;43.312;27.152;2022-07-15T01:57:17;100332.14;;;24.56;39.63
34658;BME280;20865;43.312;27.152;2022-07-15T01:59:45;100339.56;;;24.60;39.72
34658;BME280;20865;43.312;27.152;2022-07-15T02:02:12;100336.47;;;24.59;39.69
34658;BME280;20865;43.312;27.152;2022-07-15T02:04:40;100332.37;;;24.59;39.55
34658;BME280;20865;43.312;27.152;2022-07-15T02:07:08;100339.41;;;24.61;39.33
34658;BME280;20865;43.312;27.152;2022-07-15T02:09:35;100338.70;;;24.59;39.29
34658;BME280;20865;43.312;27.152;2022-07-15T02:12:03;100340.95;;;24.54;39.36
34658;BME280;20865;43.312;27.152;2022-07-15T02:14:32;100335.84;;;24.40;39.70
34658;BME280;20865;43.312;27.152;2022-07-15T02:17:01;100341.53;;;24.37;39.82
34658;BME280;20865;43.312;27.152;2022-07-15T02:19:29;100335.21;;;24.36;39.96
34658;BME280;20865;43.312;27.152;2022-07-15T02:21:57;100334.88;;;24.30;40.27
34658;BME280;20865;43.312;27.152;2022-07-15T02:24:25;100331.44;;;24.28;40.06
34658;BME280;20865;43.312;27.152;2022-07-15T02:26:53;100329.21;;;24.27;40.02
34658;BME280;20865;43.312;27.152;2022-07-15T02:29:20;100329.04;;;24.13;40.32
34658;BME280;20865;43.312;27.152;2022-07-15T02:31:48;100335.47;;;24.12;40.41
34658;BME280;20865;43.312;27.152;2022-07-15T02:34:16;100337.98;;;24.10;40.70
34658;BME280;20865;43.312;27.152;2022-07-15T02:36:43;100336.66;;;24.25;40.45
34658;BME280;20865;43.312;27.152;2022-07-15T02:39:11;100333.42;;;24.25;40.56
34658;BME280;20865;43.312;27.152;2022-07-15T02:41:38;100337.06;;;24.20;40.29
34658;BME280;20865;43.312;27.152;2022-07-15T02:44:06;100337.32;;;24.17;40.17
34658;BME280;20865;43.312;27.152;2022-07-15T02:46:33;100339.11;;;24.07;40.32
34658;BME280;20865;43.312;27.152;2022-07-15T02:49:01;100331.02;;;24.11;40.20
34658;BME280;20865;43.312;27.152;2022-07-15T02:51:29;100329.81;;;24.04;40.58
34658;BME280;20865;43.312;27.152;2022-07-15T02:53:56;100332.70;;;23.97;40.77
34658;BME280;20865;43.312;27.152;2022-07-15T02:56:24;100331.80;;;24.02;40.71
34658;BME280;20865;43.312;27.152;2022-07-15T02:58:51;100331.19;;;24.04;40.76
34658;BME280;20865;43.312;27.152;2022-07-15T03:01:19;100332.80;;;24.07;40.61
34658;BME280;20865;43.312;27.152;2022-07-15T03:03:47;100340.05;;;24.17;39.86
34658;BME280;20865;43.312;27.152;2022-07-15T03:06:14;100335.12;;;24.11;39.83
34658;BME280;20865;43.312;27.152;2022-07-15T03:08:42;100337.16;;;23.98;40.05
34658;BME280;20865;43.312;27.152;2022-07-15T03:11:09;100338.78;;;23.95;40.36
34658;BME280;20865;43.312;27.152;2022-07-15T03:13:38;100340.45;;;23.86;40.69
34658;BME280;20865;43.312;27.152;2022-07-15T03:16:06;100346.00;;;23.90;40.78
34658;BME280;20865;43.312;27.152;2022-07-15T03:18:34;100332.66;;;23.82;41.03
34658;BME280;20865;43.312;27.152;2022-07-15T03:21:02;100335.75;;;23.83;41.02
34658;BME280;20865;43.312;27.152;2022-07-15T03:23:30;100342.31;;;23.86;40.78
34658;BME280;20865;43.312;27.152;2022-07-15T03:25:58;100341.77;;;23.92;40.53
34658;BME280;20865;43.312;27.152;2022-07-15T03:28:25;100339.80;;;23.88;40.51
34658;BME280;20865;43.312;27.152;2022-07-15T03:30:53;100333.55;;;24.03;40.26
34658;BME280;20865;43.312;27.152;2022-07-15T03:33:20;100338.27;;;24.01;40.52
34658;BME280;20865;43.312;27.152;2022-07-15T03:35:48;100335.78;;;24.04;40.56
34658;BME280;20865;43.312;27.152;2022-07-15T03:38:16;100336.38;;;24.07;40.68
34658;BME280;20865;43.312;27.152;2022-07-15T03:40:44;100341.58;;;24.10;40.67
34658;BME280;20865;43.312;27.152;2022-07-15T03:43:11;100344.66;;;24.11;40.88
34658;BME280;20865;43.312;27.152;2022-07-15T03:45:40;100343.02;;;24.20;40.93
34658;BME280;20865;43.312;27.152;2022-07-15T03:48:07;100346.83;;;24.23;41.04
34658;BME280;20865;43.312;27.152;2022-07-15T03:50:35;100345.89;;;24.34;41.12
34658;BME280;20865;43.312;27.152;2022-07-15T03:53:03;100351.23;;;24.35;41.31
34658;BME280;20865;43.312;27.152;2022-07-15T03:55:30;100347.73;;;24.39;41.55
34658;BME280;20865;43.312;27.152;2022-07-15T03:57:58;100341.63;;;24.46;41.56
34658;BME280;20865;43.312;27.152;2022-07-15T04:00:26;100344.69;;;24.53;41.58
34658;BME280;20865;43.312;27.152;2022-07-15T04:02:53;100348.52;;;24.56;41.81
34658;BME280;20865;43.312;27.152;2022-07-15T04:05:21;100341.43;;;24.59;41.95
34658;BME280;20865;43.312;27.152;2022-07-15T04:07:48;100336.50;;;24.68;42.01
34658;BME280;20865;43.312;27.152;2022-07-15T04:10:16;100342.61;;;24.82;41.97
34658;BME280;20865;43.312;27.152;2022-07-15T04:12:44;100342.42;;;24.89;42.13
34658;BME280;20865;43.312;27.152;2022-07-15T04:15:12;100343.75;;;24.94;42.03
34658;BME280;20865;43.312;27.152;2022-07-15T04:17:40;100346.38;;;25.11;41.81
34658;BME280;20865;43.312;27.152;2022-07-15T04:20:09;100345.09;;;25.15;41.80
34658;BME280;20865;43.312;27.152;2022-07-15T04:22:43;100353.33;;;25.25;41.80
34658;BME280;20865;43.312;27.152;2022-07-15T04:25:14;100341.53;;;25.34;41.94
34658;BME280;20865;43.312;27.152;2022-07-15T04:27:41;100342.58;;;25.43;41.92
34658;BME280;20865;43.312;27.152;2022-07-15T04:30:10;100352.37;;;25.46;42.01
34658;BME280;20865;43.312;27.152;2022-07-15T04:32:38;100341.43;;;25.55;41.92
34658;BME280;20865;43.312;27.152;2022-07-15T04:35:07;100343.19;;;25.76;41.53
34658;BME280;20865;43.312;27.152;2022-07-15T04:37:35;100335.02;;;25.85;41.47
34658;BME280;20865;43.312;27.152;2022-07-15T04:40:03;100332.52;;;25.98;41.34
34658;BME280;20865;43.312;27.152;2022-07-15T04:42:32;100331.63;;;26.07;41.40
34658;BME280;20865;43.312;27.152;2022-07-15T04:45:00;100339.84;;;26.17;41.23
34658;BME280;20865;43.312;27.152;2022-07-15T04:47:28;100336.08;;;26.27;41.22
34658;BME280;20865;43.312;27.152;2022-07-15T04:49:56;100347.59;;;26.41;40.97
34658;BME280;20865;43.312;27.152;2022-07-15T04:52:46;100343.80;;;26.47;41.42
34658;BME280;20865;43.312;27.152;2022-07-15T04:55:14;100338.43;;;26.55;41.37
34658;BME280;20865;43.312;27.152;2022-07-15T04:57:42;100335.32;;;26.64;41.08
34658;BME280;20865;43.312;27.152;2022-07-15T05:00:11;100336.34;;;26.77;41.17
34658;BME280;20865;43.312;27.152;2022-07-15T05:02:38;100339.58;;;27.00;40.33
34658;BME280;20865;43.312;27.152;2022-07-15T05:05:06;100339.58;;;27.00;40.33
34658;BME280;20865;43.312;27.152;2022-07-15T05:07:34;100303.23;;;27.12;40.09
34658;BME280;20865;43.312;27.152;2022-07-15T05:10:03;100318.80;;;27.21;39.66
34658;BME280;20865;43.312;27.152;2022-07-15T05:12:31;100330.97;;;27.36;39.34
34658;BME280;20865;43.312;27.152;2022-07-15T05:14:58;100333.70;;;27.50;39.31
34658;BME280;20865;43.312;27.152;2022-07-15T05:17:26;100323.56;;;27.78;39.06
34658;BME280;20865;43.312;27.152;2022-07-15T05:19:54;100323.56;;;27.78;39.06
34658;BME280;20865;43.312;27.152;2022-07-15T05:22:21;100323.55;;;27.96;38.28
34658;BME280;20865;43.312;27.152;2022-07-15T05:24:49;100334.17;;;28.13;37.88
34658;BME280;20865;43.312;27.152;2022-07-15T05:27:17;100337.08;;;28.33;37.69
34658;BME280;20865;43.312;27.152;2022-07-15T05:29:44;100334.52;;;28.54;37.78
34658;BME280;20865;43.312;27.152;2022-07-15T05:32:12;100328.84;;;28.33;37.95
34658;BME280;20865;43.312;27.152;2022-07-15T05:34:40;100334.87;;;28.81;37.29
34658;BME280;20865;43.312;27.152;2022-07-15T05:37:07;100337.91;;;29.00;36.68
34658;BME280;20865;43.312;27.152;2022-07-15T05:39:35;100340.73;;;29.12;36.71
34658;BME280;20865;43.312;27.152;2022-07-15T05:42:03;100335.59;;;29.25;36.40
34658;BME280;20865;43.312;27.152;2022-07-15T05:44:31;100334.21;;;29.21;36.99
34658;BME280;20865;43.312;27.152;2022-07-15T05:46:58;100334.22;;;29.25;37.16
34658;BME280;20865;43.312;27.152;2022-07-15T05:49:26;100335.76;;;29.62;36.94
34658;BME280;20865;43.312;27.152;2022-07-15T05:51:54;100331.59;;;29.58;36.64
34658;BME280;20865;43.312;27.152;2022-07-15T05:54:21;100328.58;;;29.94;36.14
34658;BME280;20865;43.312;27.152;2022-07-15T05:56:49;100326.13;;;29.74;36.44
34658;BME280;20865;43.312;27.152;2022-07-15T05:59:17;100321.56;;;30.24;35.46
34658;BME280;20865;43.312;27.152;2022-07-15T06:01:44;100320.34;;;30.34;35.28
34658;BME280;20865;43.312;27.152;2022-07-15T06:04:13;100317.38;;;30.56;34.38
34658;BME280;20865;43.312;27.152;2022-07-15T06:06:40;100314.45;;;30.62;33.97
34658;BME280;20865;43.312;27.152;2022-07-15T06:09:08;100317.88;;;30.64;33.82
34658;BME280;20865;43.312;27.152;2022-07-15T06:11:36;100323.56;;;30.67;34.01
34658;BME280;20865;43.312;27.152;2022-07-15T06:14:04;100324.39;;;30.88;34.61
34658;BME280;20865;43.312;27.152;2022-07-15T06:16:32;100316.10;;;30.92;34.71
34658;BME280;20865;43.312;27.152;2022-07-15T06:18:59;100324.45;;;31.19;34.31
34658;BME280;20865;43.312;27.152;2022-07-15T06:21:27;100315.12;;;31.32;33.97
34658;BME280;20865;43.312;27.152;2022-07-15T06:23:56;100311.88;;;31.51;33.57
34658;BME280;20865;43.312;27.152;2022-07-15T06:26:24;100304.13;;;31.51;33.73
34658;BME280;20865;43.312;27.152;2022-07-15T06:28:52;100308.22;;;31.32;33.24
34658;BME280;20865;43.312;27.152;2022-07-15T06:31:19;100304.59;;;31.63;33.70
34658;BME280;20865;43.312;27.152;2022-07-15T06:33:47;100304.02;;;31.40;34.03
34658;BME280;20865;43.312;27.152;2022-07-15T06:36:14;100296.89;;;31.15;33.88
34658;BME280;20865;43.312;27.152;2022-07-15T06:38:42;100303.69;;;31.93;32.98
34658;BME280;20865;43.312;27.152;2022-07-15T06:41:12;100305.27;;;32.11;33.02
34658;BME280;20865;43.312;27.152;2022-07-15T06:43:40;100298.80;;;32.18;32.59
34658;BME280;20865;43.312;27.152;2022-07-15T06:46:09;100301.20;;;32.21;32.54
34658;BME280;20865;43.312;27.152;2022-07-15T06:48:37;100302.11;;;32.37;33.01
34658;BME280;20865;43.312;27.152;2022-07-15T06:51:06;100297.31;;;32.54;32.39
34658;BME280;20865;43.312;27.152;2022-07-15T06:53:34;100291.30;;;32.65;31.04
34658;BME280;20865;43.312;27.152;2022-07-15T06:56:02;100296.12;;;32.82;31.75
34658;BME280;20865;43.312;27.152;2022-07-15T06:58:30;100289.20;;;33.11;30.99
34658;BME280;20865;43.312;27.152;2022-07-15T07:00:57;100285.52;;;33.15;30.55
34658;BME280;20865;43.312;27.152;2022-07-15T07:03:26;100287.67;;;33.24;30.87
34658;BME280;20865;43.312;27.152;2022-07-15T07:05:54;100285.16;;;33.29;31.18
34658;BME280;20865;43.312;27.152;2022-07-15T07:08:21;100279.61;;;33.18;31.40
34658;BME280;20865;43.312;27.152;2022-07-15T07:10:49;100278.69;;;33.22;30.37
34658;BME280;20865;43.312;27.152;2022-07-15T07:13:16;100277.33;;;33.32;30.57
34658;BME280;20865;43.312;27.152;2022-07-15T07:15:44;100276.02;;;33.28;31.39
34658;BME280;20865;43.312;27.152;2022-07-15T07:18:12;100278.56;;;33.30;31.80
34658;BME280;20865;43.312;27.152;2022-07-15T07:20:39;100275.96;;;33.43;30.95
34658;BME280;20865;43.312;27.152;2022-07-15T07:23:09;100274.77;;;33.56;31.69
34658;BME280;20865;43.312;27.152;2022-07-15T07:25:37;100274.37;;;34.13;30.52
34658;BME280;20865;43.312;27.152;2022-07-15T07:28:04;100267.58;;;34.16;30.00
34658;BME280;20865;43.312;27.152;2022-07-15T07:30:32;100271.30;;;34.01;30.45
34658;BME280;20865;43.312;27.152;2022-07-15T07:33:00;100269.75;;;33.88;30.00
34658;BME280;20865;43.312;27.152;2022-07-15T07:35:29;100268.66;;;33.82;30.78
34658;BME280;20865;43.312;27.152;2022-07-15T07:37:57;100269.74;;;33.99;30.31
34658;BME280;20865;43.312;27.152;2022-07-15T07:40:24;100267.06;;;34.05;29.79
34658;BME280;20865;43.312;27.152;2022-07-15T07:42:52;100269.76;;;34.09;29.54
34658;BME280;20865;43.312;27.152;2022-07-15T07:45:22;100271.83;;;34.01;29.34
34658;BME280;20865;43.312;27.152;2022-07-15T07:47:50;100265.80;;;33.97;29.66
34658;BME280;20865;43.312;27.152;2022-07-15T07:50:18;100266.59;;;34.12;29.49
34658;BME280;20865;43.312;27.152;2022-07-15T07:52:46;100263.00;;;34.29;28.34
34658;BME280;20865;43.312;27.152;2022-07-15T07:55:13;100269.62;;;34.56;30.15
34658;BME280;20865;43.312;27.152;2022-07-15T07:57:53;100270.03;;;34.71;28.94
34658;BME280;20865;43.312;27.152;2022-07-15T08:00:21;100266.75;;;34.95;28.80
34658;BME280;20865;43.312;27.152;2022-07-15T08:02:49;100267.27;;;35.36;29.03
34658;BME280;20865;43.312;27.152;2022-07-15T08:05:17;100257.60;;;35.19;29.60
34658;BME280;20865;43.312;27.152;2022-07-15T08:07:44;100260.98;;;35.45;29.93
34658;BME280;20865;43.312;27.152;2022-07-15T08:10:13;100257.06;;;35.50;28.85
34658;BME280;20865;43.312;27.152;2022-07-15T08:12:41;100255.72;;;35.70;28.08
34658;BME280;20865;43.312;27.152;2022-07-15T08:15:10;100253.72;;;35.74;27.57
34658;BME280;20865;43.312;27.152;2022-07-15T08:17:38;100252.23;;;35.85;27.00
34658;BME280;20865;43.312;27.152;2022-07-15T08:20:08;100255.26;;;36.04;27.15
34658;BME280;20865;43.312;27.152;2022-07-15T08:22:37;100263.17;;;36.07;27.05
34658;BME280;20865;43.312;27.152;2022-07-15T08:25:05;100252.23;;;35.92;26.83
34658;BME280;20865;43.312;27.152;2022-07-15T08:27:33;100254.83;;;36.20;27.62
34658;BME280;20865;43.312;27.152;2022-07-15T08:30:01;100249.78;;;36.19;27.26
34658;BME280;20865;43.312;27.152;2022-07-15T08:32:29;100248.61;;;36.31;26.94
34658;BME280;20865;43.312;27.152;2022-07-15T08:34:56;100244.98;;;36.37;25.90
34658;BME280;20865;43.312;27.152;2022-07-15T08:37:27;100234.91;;;36.36;25.64
34658;BME280;20865;43.312;27.152;2022-07-15T08:39:55;100246.45;;;36.40;24.45
34658;BME280;20865;43.312;27.152;2022-07-15T08:42:22;100238.66;;;36.53;23.02
34658;BME280;20865;43.312;27.152;2022-07-15T08:44:50;100237.11;;;36.70;22.98
34658;BME280;20865;43.312;27.152;2022-07-15T08:47:20;100230.58;;;36.73;23.55
34658;BME280;20865;43.312;27.152;2022-07-15T08:49:57;100237.62;;;36.83;22.04
34658;BME280;20865;43.312;27.152;2022-07-15T08:52:25;100232.59;;;36.82;22.78
34658;BME280;20865;43.312;27.152;2022-07-15T08:54:53;100234.20;;;36.74;23.75
34658;BME280;20865;43.312;27.152;2022-07-15T08:57:21;100225.08;;;36.89;22.88
34658;BME280;20865;43.312;27.152;2022-07-15T08:59:52;100227.91;;;37.05;22.95
34658;BME280;20865;43.312;27.152;2022-07-15T09:02:20;100226.93;;;37.09;23.31
34658;BME280;20865;43.312;27.152;2022-07-15T09:05:18;100223.95;;;37.26;22.10
34658;BME280;20865;43.312;27.152;2022-07-15T09:10:22;100218.00;;;37.45;21.15
34658;BME280;20865;43.312;27.152;2022-07-15T09:12:52;100219.31;;;37.52;21.25
34658;BME280;20865;43.312;27.152;2022-07-15T09:15:31;100219.26;;;37.42;20.82
34658;BME280;20865;43.312;27.152;2022-07-15T09:18:11;100216.81;;;37.43;21.42
34658;BME280;20865;43.312;27.152;2022-07-15T09:20:35;100219.38;;;37.61;21.94
34658;BME280;20865;43.312;27.152;2022-07-15T09:23:03;100220.27;;;37.55;21.33
34658;BME280;20865;43.312;27.152;2022-07-15T09:25:32;100210.68;;;37.76;19.00
34658;BME280;20865;43.312;27.152;2022-07-15T09:28:03;100205.39;;;37.83;20.06
34658;BME280;20865;43.312;27.152;2022-07-15T09:30:37;100211.45;;;37.89;21.06
34658;BME280;20865;43.312;27.152;2022-07-15T09:33:24;100211.95;;;37.96;20.62
34658;BME280;20865;43.312;27.152;2022-07-15T09:38:50;100197.53;;;37.89;18.16
34658;BME280;20865;43.312;27.152;2022-07-15T09:41:32;100196.32;;;38.04;19.10
34658;BME280;20865;43.312;27.152;2022-07-15T09:49:11;100185.14;;;38.20;17.53
34658;BME280;20865;43.312;27.152;2022-07-15T09:51:47;100180.17;;;38.22;18.77
34658;BME280;20865;43.312;27.152;2022-07-15T09:54:16;100177.19;;;38.32;18.94
34658;BME280;20865;43.312;27.152;2022-07-15T09:56:48;100179.43;;;38.33;19.53
34658;BME280;20865;43.312;27.152;2022-07-15T09:59:19;100180.79;;;38.40;20.16
34658;BME280;20865;43.312;27.152;2022-07-15T10:01:46;100175.19;;;38.49;19.17
34658;BME280;20865;43.312;27.152;2022-07-15T10:04:16;100171.78;;;38.56;19.06
34658;BME280;20865;43.312;27.152;2022-07-15T10:06:48;100170.77;;;38.59;19.03
34658;BME280;20865;43.312;27.152;2022-07-15T10:09:26;100163.80;;;38.59;17.37
34658;BME280;20865;43.312;27.152;2022-07-15T10:11:55;100158.60;;;38.72;18.31
34658;BME280;20865;43.312;27.152;2022-07-15T10:19:56;100153.83;;;38.43;17.79
34658;BME280;20865;43.312;27.152;2022-07-15T10:28:07;100137.51;;;38.76;19.41
34658;BME280;20865;43.312;27.152;2022-07-15T10:30:36;100128.67;;;38.79;18.82
34658;BME280;20865;43.312;27.152;2022-07-15T10:33:19;100131.69;;;38.96;19.06
34658;BME280;20865;43.312;27.152;2022-07-15T10:35:52;100125.50;;;38.76;18.88
34658;BME280;20865;43.312;27.152;2022-07-15T10:38:29;100121.26;;;38.82;19.61
34658;BME280;20865;43.312;27.152;2022-07-15T10:41:04;100125.28;;;38.68;19.57
34658;BME280;20865;43.312;27.152;2022-07-15T10:43:50;100116.15;;;38.52;20.36
34658;BME280;20865;43.312;27.152;2022-07-15T10:46:21;100119.09;;;38.39;20.20
34658;BME280;20865;43.312;27.152;2022-07-15T10:49:27;100116.90;;;38.31;20.74
34658;BME280;20865;43.312;27.152;2022-07-15T10:54:11;100114.72;;;38.06;19.87
34658;BME280;20865;43.312;27.152;2022-07-15T10:56:44;100109.77;;;37.99;20.15
34658;BME280;20865;43.312;27.152;2022-07-15T10:59:17;100113.94;;;37.99;21.30
34658;BME280;20865;43.312;27.152;2022-07-15T11:01:50;100116.89;;;37.95;21.24
34658;BME280;20865;43.312;27.152;2022-07-15T11:04:23;100116.34;;;37.95;20.94
34658;BME280;20865;43.312;27.152;2022-07-15T11:15:11;100110.02;;;37.81;21.28
34658;BME280;20865;43.312;27.152;2022-07-15T11:17:42;100101.34;;;37.80;21.78
34658;BME280;20865;43.312;27.152;2022-07-15T11:20:16;100106.28;;;37.78;21.71
34658;BME280;20865;43.312;27.152;2022-07-15T11:22:49;100103.02;;;37.72;22.10
34658;BME280;20865;43.312;27.152;2022-07-15T11:25:22;100100.69;;;37.69;21.59
34658;BME280;20865;43.312;27.152;2022-07-15T11:28:05;100106.34;;;37.62;21.15
34658;BME280;20865;43.312;27.152;2022-07-15T11:30:35;100106.91;;;37.55;22.79
34658;BME280;20865;43.312;27.152;2022-07-15T11:33:05;100097.41;;;37.54;22.13
34658;BME280;20865;43.312;27.152;2022-07-15T11:35:44;100098.55;;;37.55;21.77
34658;BME280;20865;43.312;27.152;2022-07-15T11:38:12;100099.55;;;37.52;21.84
34658;BME280;20865;43.312;27.152;2022-07-15T11:40:46;100093.67;;;37.51;20.97
34658;BME280;20865;43.312;27.152;2022-07-15T11:43:32;100097.70;;;37.55;21.83
34658;BME280;20865;43.312;27.152;2022-07-15T11:46:18;100093.38;;;37.50;22.24
34658;BME280;20865;43.312;27.152;2022-07-15T11:48:45;100095.31;;;37.49;21.71
34658;BME280;20865;43.312;27.152;2022-07-15T11:51:14;100095.22;;;37.47;22.42
34658;BME280;20865;43.312;27.152;2022-07-15T11:53:44;100093.38;;;37.50;22.07
34658;BME280;20865;43.312;27.152;2022-07-15T11:56:14;100090.09;;;37.43;22.91
34658;BME280;20865;43.312;27.152;2022-07-15T11:58:52;100089.42;;;37.41;21.74
34658;BME280;20865;43.312;27.152;2022-07-15T12:01:25;100086.72;;;37.51;21.62
34658;BME280;20865;43.312;27.152;2022-07-15T12:03:57;100075.96;;;37.45;19.71
34658;BME280;20865;43.312;27.152;2022-07-15T12:06:30;100072.67;;;37.64;20.93
34658;BME280;20865;43.312;27.152;2022-07-15T12:09:01;100077.02;;;37.94;21.35
34658;BME280;20865;43.312;27.152;2022-07-15T12:11:35;100070.90;;;38.13;21.53
34658;BME280;20865;43.312;27.152;2022-07-15T12:14:02;100067.66;;;38.25;20.69
34658;BME280;20865;43.312;27.152;2022-07-15T12:16:35;100063.14;;;38.24;19.13
34658;BME280;20865;43.312;27.152;2022-07-15T12:21:37;100059.08;;;38.36;19.17
34658;BME280;20865;43.312;27.152;2022-07-15T12:24:08;100065.09;;;38.33;20.44
34658;BME280;20865;43.312;27.152;2022-07-15T12:26:39;100062.30;;;38.24;18.55
34658;BME280;20865;43.312;27.152;2022-07-15T12:29:09;100054.31;;;38.18;19.17
34658;BME280;20865;43.312;27.152;2022-07-15T12:31:38;100062.27;;;37.87;19.03
34658;BME280;20865;43.312;27.152;2022-07-15T12:34:07;100063.87;;;37.85;19.25
34658;BME280;20865;43.312;27.152;2022-07-15T12:36:35;100062.55;;;37.79;21.37
34658;BME280;20865;43.312;27.152;2022-07-15T12:39:07;100065.86;;;37.69;21.46
34658;BME280;20865;43.312;27.152;2022-07-15T12:41:37;100069.09;;;37.57;21.68
34658;BME280;20865;43.312;27.152;2022-07-15T12:44:06;100067.41;;;37.56;22.05
34658;BME280;20865;43.312;27.152;2022-07-15T12:46:59;100069.30;;;37.46;22.09
34658;BME280;20865;43.312;27.152;2022-07-15T12:49:45;100059.79;;;37.38;19.57
34658;BME280;20865;43.312;27.152;2022-07-15T12:54:52;100057.92;;;37.48;21.00
34658;BME280;20865;43.312;27.152;2022-07-15T12:59:59;100053.47;;;37.65;20.78
34658;BME280;20865;43.312;27.152;2022-07-15T13:02:27;100048.02;;;37.77;20.92
34658;BME280;20865;43.312;27.152;2022-07-15T13:04:55;100050.10;;;37.81;20.94
34658;BME280;20865;43.312;27.152;2022-07-15T13:07:23;100044.46;;;37.88;20.26
34658;BME280;20865;43.312;27.152;2022-07-15T13:09:51;100043.47;;;38.01;20.33
34658;BME280;20865;43.312;27.152;2022-07-15T13:12:18;100037.91;;;38.10;20.44
34658;BME280;20865;43.312;27.152;2022-07-15T13:14:46;100040.37;;;38.18;20.78
34658;BME280;20865;43.312;27.152;2022-07-15T13:17:14;100036.57;;;38.22;20.55
34658;BME280;20865;43.312;27.152;2022-07-15T13:19:41;100036.57;;;38.22;19.20
34658;BME280;20865;43.312;27.152;2022-07-15T13:22:09;100036.05;;;38.22;19.29
34658;BME280;20865;43.312;27.152;2022-07-15T13:24:37;100035.42;;;38.20;20.09
34658;BME280;20865;43.312;27.152;2022-07-15T13:27:04;100041.71;;;38.16;20.09
34658;BME280;20865;43.312;27.152;2022-07-15T13:29:32;100035.53;;;38.04;20.40
34658;BME280;20865;43.312;27.152;2022-07-15T13:32:00;100034.13;;;38.04;19.84